Teniente Benjamin Matienzo Airport
SANT : rendu visible

Aérodrome :











RETROUVEZ-NOUS SUR...

 
LOGIN :

S'inscrire | Disclaimer

   EN    FR    IT 

 









Légende :    VFR   VFR Marginal   IFR   IFR Intensif   IFR Très Intensif
Visi : 
Plafond : 
>= 8 km
>= 3000ft
5 à 8 km
1000 à 3000 ft
1500m à 5 km
500 à 1000 ft
800 à 1500m
200 à 500 ft
< 800m
< 200 ft
Symboles :   Orages  Brouillard  Fortes neiges  Fortes précipitations  Vent > 20 kt






- Altitude de l'aérodrome : 1493 ft
- Code IATA : TUC


SANT - Teniente Benjamin Matienzo

DERNIER METAR :
  • 020000Z 25007KT 9999 BKN045 BKN100 25/20 Q1006

METARs EXPIRÉS :
  • 012300Z 07007KT 9999 FEW035 SCT050 26/21 Q1005
  • 012200Z 05007KT 9999 FEW035 BKN050 29/22 Q1005

TAF TAF SANT
Valide du 02 à 00h jusqu'au 03 à 00h UTC


012300Z 0200/0224 VRB03KT 9999 BKN040 TX31/0218Z TN21/0210Z
BECMG 0209/0212 20015KT 9999 TS BKN030 FEW040CB
TEMPO 0214/0218 5000 TSRA BKN020 SCT030CB
FIR SACF / Amérique du Sud



MET'MAP, la Météo Aéronautique d'un coup d'oeil ! - Copyright ORBIFLY Décembre 2007 - Disclaimer

ORBIFLY MET'MAP TEAM :

Programmation & Développement : Alexandra Zaïnal
Sur une idée originale de : Baudouin d'Aumeries
Assistance à la programmation : Marc-Olivier Méhu
Soutien technique & logistique : Manuel Goepfert

Contact : metmap@orbifly.com




SOURCES & CREDITS :

   NOAA       Earth
Advisory